Time;durP1;ratioP1;P1;durP2;ratioP2;P2;SDS_P1;SDS_P2;PMS_P1;PMS_P2;Temp;Humidity;BMP_temperature;BMP_pressure;BME280_temperature;BME280_humidity;BME280_pressure;Samples;Min_cycle;Max_cycle;Signal;HPM_P1;HPM_P2
2021/06/24 00:00:48;;;;;;;6.30;5.20;;;;;;;;;;5075409;28;20497;-78
2021/06/24 00:03:14;;;;;;;6.25;5.32;;;;;;;;;;5075111;28;20044;-78
2021/06/24 00:05:41;;;;;;;12.55;7.30;;;;;;;;;;5075739;28;20032;-79
2021/06/24 00:08:08;;;;;;;6.07;5.10;;;;;;;;;;5076104;28;20029;-78
2021/06/24 00:10:35;;;;;;;6.53;5.75;;;;;;;;;;5075201;28;20028;-78
2021/06/24 00:13:01;;;;;;;10.27;6.13;;;;;;;;;;5075816;28;20104;-78
2021/06/24 00:15:27;;;;;;;7.72;5.32;;;;;;;;;;5075917;28;20056;-78
2021/06/24 00:17:53;;;;;;;13.05;7.07;;;;;;;;;;5075758;28;20081;-78
2021/06/24 00:20:19;;;;;;;7.93;6.03;;;;;;;;;;5075556;28;20029;-78
2021/06/24 00:22:45;;;;;;;6.93;6.07;;;;;;;;;;5076203;28;20085;-78
2021/06/24 00:25:12;;;;;;;8.30;6.28;;;;;;;;;;5075907;28;20032;-78
2021/06/24 00:27:37;;;;;;;7.43;5.65;;;;;;;;;;5075160;28;20041;-78
2021/06/24 00:30:04;;;;;;;7.05;6.28;;;;;;;;;;5074801;28;20462;-78
2021/06/24 00:32:32;;;;;;;9.07;5.72;;;;;;;;;;5075789;28;20040;-78
2021/06/24 00:35:01;;;;;;;9.18;6.63;;;;;;;;;;5075365;28;20632;-78
2021/06/24 00:37:28;;;;;;;9.00;6.75;;;;;;;;;;5076993;28;20083;-78
2021/06/24 00:39:54;;;;;;;7.15;6.43;;;;;;;;;;5077613;28;20028;-78
2021/06/24 00:42:20;;;;;;;11.52;6.80;;;;;;;;;;5079384;28;20027;-78
2021/06/24 00:44:46;;;;;;;8.45;6.30;;;;;;;;;;5078862;28;20097;-78
2021/06/24 00:47:12;;;;;;;6.50;5.90;;;;;;;;;;5078875;28;20025;-78
2021/06/24 00:49:38;;;;;;;10.18;6.25;;;;;;;;;;5077236;28;20052;-78
2021/06/24 00:52:04;;;;;;;8.20;6.10;;;;;;;;;;5079370;28;20558;-78
2021/06/24 00:54:30;;;;;;;8.40;6.30;;;;;;;;;;5083696;28;20041;-78
2021/06/24 00:56:57;;;;;;;7.50;6.22;;;;;;;;;;5081145;28;20039;-79
2021/06/24 00:59:23;;;;;;;9.05;7.30;;;;;;;;;;5083119;28;20651;-78
2021/06/24 01:01:49;;;;;;;8.95;6.68;;;;;;;;;;5080134;28;20024;-77
2021/06/24 01:04:21;;;;;;;10.43;7.47;;;;;;;;;;5078899;28;20055;-79
2021/06/24 01:06:48;;;;;;;15.60;7.70;;;;;;;;;;5079778;28;20422;-77
2021/06/24 01:09:14;;;;;;;10.02;7.78;;;;;;;;;;5080381;28;20032;-78
2021/06/24 01:11:40;;;;;;;10.23;8.25;;;;;;;;;;5078774;28;20054;-79
2021/06/24 01:14:06;;;;;;;8.65;7.85;;;;;;;;;;5079066;28;20033;-78
2021/06/24 01:16:32;;;;;;;9.45;8.23;;;;;;;;;;5078892;28;20027;-78
2021/06/24 01:18:58;;;;;;;13.02;8.07;;;;;;;;;;5077776;28;20020;-78
2021/06/24 01:21:24;;;;;;;11.65;8.77;;;;;;;;;;5079274;28;20389;-78
2021/06/24 01:23:50;;;;;;;10.20;8.05;;;;;;;;;;5079923;28;20055;-78
2021/06/24 01:26:16;;;;;;;9.73;8.60;;;;;;;;;;5078869;28;20501;-78
2021/06/24 01:28:42;;;;;;;18.60;10.95;;;;;;;;;;5077326;28;20036;-78
2021/06/24 01:31:08;;;;;;;12.70;9.35;;;;;;;;;;5078192;28;20039;-78
2021/06/24 01:33:35;;;;;;;16.13;9.32;;;;;;;;;;5078598;28;20024;-78
2021/06/24 01:36:05;;;;;;;18.52;9.18;;;;;;;;;;5078328;28;20094;-78
2021/06/24 01:38:32;;;;;;;10.57;8.45;;;;;;;;;;5078176;28;20024;-76
2021/06/24 01:40:58;;;;;;;14.80;9.70;;;;;;;;;;5076043;28;20028;-78
2021/06/24 01:43:25;;;;;;;19.20;10.70;;;;;;;;;;5076435;28;20020;-77
2021/06/24 01:45:52;;;;;;;16.08;11.60;;;;;;;;;;5075223;28;20028;-76
2021/06/24 01:48:18;;;;;;;15.43;12.27;;;;;;;;;;5075462;28;20029;-77
2021/06/24 19:52:06;;;;;;;17.13;14.23;;;;;;;;;;5129720;27;20499;-74
2021/06/24 19:54:32;;;;;;;18.38;15.25;;;;;;;;;;5111933;28;20039;-73
2021/06/24 19:56:58;;;;;;;19.98;15.35;;;;;;;;;;5128419;28;20032;-73
2021/06/24 19:59:24;;;;;;;19.15;14.65;;;;;;;;;;5123506;28;20110;-73
2021/06/24 20:01:51;;;;;;;21.23;15.63;;;;;;;;;;5118989;28;20065;-73
2021/06/24 20:04:17;;;;;;;17.55;14.02;;;;;;;;;;5117047;28;20058;-75
2021/06/24 20:06:43;;;;;;;16.92;13.60;;;;;;;;;;5116278;28;20027;-73
2021/06/24 20:09:09;;;;;;;16.73;12.43;;;;;;;;;;5117121;28;20080;-73
2021/06/24 20:11:35;;;;;;;15.10;12.38;;;;;;;;;;5119886;28;20028;-74
2021/06/24 20:14:01;;;;;;;17.42;11.77;;;;;;;;;;5119624;28;20053;-74
2021/06/24 20:16:27;;;;;;;15.38;13.27;;;;;;;;;;5119417;28;20027;-73
2021/06/24 20:18:54;;;;;;;19.55;14.20;;;;;;;;;;5116566;28;20563;-75
2021/06/24 20:21:20;;;;;;;21.17;14.40;;;;;;;;;;5119166;28;20019;-73
2021/06/24 20:23:46;;;;;;;13.98;12.43;;;;;;;;;;5119439;28;20020;-73
2021/06/24 20:26:13;;;;;;;15.07;12.52;;;;;;;;;;5119636;28;20039;-73
2021/06/24 20:28:39;;;;;;;15.73;12.00;;;;;;;;;;5119294;28;20408;-75
2021/06/24 20:31:07;;;;;;;15.98;12.18;;;;;;;;;;5117868;28;20051;-74
2021/06/24 20:33:33;;;;;;;13.88;11.38;;;;;;;;;;5120244;27;20099;-72
2021/06/24 20:35:59;;;;;;;13.45;11.90;;;;;;;;;;5119481;28;20016;-73
2021/06/24 20:38:25;;;;;;;17.90;12.18;;;;;;;;;;5121072;28;20160;-73
2021/06/24 20:40:52;;;;;;;16.40;11.80;;;;;;;;;;5118354;28;20050;-73
2021/06/24 20:43:18;;;;;;;19.05;12.90;;;;;;;;;;5117452;27;20059;-72
2021/06/24 20:45:45;;;;;;;14.60;11.80;;;;;;;;;;5117980;28;20024;-72
2021/06/24 20:48:12;;;;;;;17.73;13.13;;;;;;;;;;5119027;28;20057;-72
2021/06/24 20:50:38;;;;;;;17.20;11.93;;;;;;;;;;5116264;28;20476;-72
2021/06/24 20:53:05;;;;;;;19.25;13.07;;;;;;;;;;5117338;28;20031;-75
2021/06/24 20:55:35;;;;;;;15.88;12.80;;;;;;;;;;5118760;28;20039;-75
2021/06/24 20:58:01;;;;;;;19.77;13.27;;;;;;;;;;5117703;28;20392;-75
2021/06/24 21:00:27;;;;;;;22.60;13.82;;;;;;;;;;5117421;28;20038;-75
2021/06/24 21:02:55;;;;;;;18.38;14.15;;;;;;;;;;5108202;28;20032;-74
2021/06/24 21:05:21;;;;;;;16.52;13.45;;;;;;;;;;5101969;28;20098;-74
2021/06/24 21:07:47;;;;;;;16.88;14.07;;;;;;;;;;5105818;28;20023;-76
2021/06/24 21:10:14;;;;;;;17.65;13.80;;;;;;;;;;5103469;28;20031;-74
2021/06/24 21:12:40;;;;;;;21.08;15.60;;;;;;;;;;5105127;28;20016;-74
2021/06/24 21:15:06;;;;;;;19.00;13.45;;;;;;;;;;5103808;28;20023;-74
2021/06/24 21:17:32;;;;;;;16.55;11.60;;;;;;;;;;5105534;28;20094;-75
2021/06/24 21:19:58;;;;;;;28.17;12.18;;;;;;;;;;5097862;28;20028;-75
2021/06/24 21:22:24;;;;;;;15.52;12.32;;;;;;;;;;5094105;28;20031;-76
2021/06/24 21:24:51;;;;;;;14.90;11.48;;;;;;;;;;5094443;28;20408;-75
2021/06/24 21:27:17;;;;;;;16.77;9.95;;;;;;;;;;5096817;28;20366;-74
2021/06/24 21:29:43;;;;;;;17.75;11.82;;;;;;;;;;5113440;28;20103;-75
2021/06/24 21:32:09;;;;;;;12.68;9.93;;;;;;;;;;5114551;28;20022;-75
2021/06/24 21:34:35;;;;;;;11.13;8.73;;;;;;;;;;5114762;28;20124;-75
2021/06/24 21:37:01;;;;;;;11.25;8.38;;;;;;;;;;5111565;28;20523;-76
2021/06/24 21:39:27;;;;;;;11.27;6.90;;;;;;;;;;5094942;28;20040;-74
2021/06/24 21:41:53;;;;;;;6.47;5.13;;;;;;;;;;5107090;28;20039;-77
2021/06/24 21:44:19;;;;;;;7.78;5.70;;;;;;;;;;5094391;28;20097;-74
2021/06/24 21:46:45;;;;;;;12.65;5.72;;;;;;;;;;5094138;28;20025;-74
2021/06/24 21:49:11;;;;;;;7.38;4.75;;;;;;;;;;5093412;28;20055;-74
2021/06/24 21:51:37;;;;;;;7.13;4.60;;;;;;;;;;5094069;28;20040;-75
2021/06/24 21:54:03;;;;;;;8.00;5.25;;;;;;;;;;5093830;28;20058;-75
2021/06/24 21:56:29;;;;;;;7.60;5.18;;;;;;;;;;5094102;28;20540;-77
2021/06/24 21:58:55;;;;;;;6.40;4.95;;;;;;;;;;5111868;28;20066;-78
2021/06/24 22:01:21;;;;;;;10.60;4.90;;;;;;;;;;5115520;28;20035;-76
2021/06/24 22:03:49;;;;;;;6.70;5.15;;;;;;;;;;5114387;28;20026;-77
2021/06/24 22:06:15;;;;;;;8.05;4.88;;;;;;;;;;5099225;28;20099;-78
2021/06/24 22:08:41;;;;;;;7.45;5.07;;;;;;;;;;5094626;28;20032;-78
2021/06/24 22:11:07;;;;;;;6.47;5.20;;;;;;;;;;5094642;28;20377;-76
2021/06/24 22:13:33;;;;;;;7.38;5.13;;;;;;;;;;5092478;28;20024;-76
2021/06/24 22:15:59;;;;;;;10.25;5.20;;;;;;;;;;5093525;28;20024;-76
2021/06/24 22:18:25;;;;;;;7.35;4.65;;;;;;;;;;5092404;28;20507;-76
2021/06/24 22:20:51;;;;;;;4.72;4.05;;;;;;;;;;5092940;28;20060;-76
2021/06/24 22:23:17;;;;;;;7.00;4.65;;;;;;;;;;5093661;28;20051;-77
2021/06/24 22:25:43;;;;;;;7.10;4.05;;;;;;;;;;5095241;28;20024;-77
2021/06/24 22:28:09;;;;;;;6.80;3.92;;;;;;;;;;5104582;28;20034;-77
2021/06/24 22:30:35;;;;;;;8.05;4.63;;;;;;;;;;5106274;28;20032;-76
2021/06/24 22:33:02;;;;;;;7.15;4.05;;;;;;;;;;5092854;28;20058;-77
2021/06/24 22:35:28;;;;;;;7.13;4.05;;;;;;;;;;5092890;28;20051;-76
2021/06/24 22:37:54;;;;;;;5.80;4.25;;;;;;;;;;5092737;28;20028;-76
2021/06/24 22:40:20;;;;;;;6.30;4.05;;;;;;;;;;5092576;28;20032;-77
2021/06/24 22:42:46;;;;;;;6.63;4.00;;;;;;;;;;5100295;28;20577;-77
2021/06/24 22:45:13;;;;;;;6.63;4.10;;;;;;;;;;5113615;28;20407;-77
2021/06/24 22:47:39;;;;;;;4.60;3.75;;;;;;;;;;5113044;28;20055;-77
2021/06/24 22:50:06;;;;;;;6.15;3.55;;;;;;;;;;5110941;28;20043;-77
2021/06/24 22:52:32;;;;;;;15.50;3.92;;;;;;;;;;5112891;28;20100;-77
2021/06/24 22:54:58;;;;;;;6.47;3.80;;;;;;;;;;5106130;28;20558;-77
2021/06/24 22:57:24;;;;;;;6.40;4.00;;;;;;;;;;5095755;28;20075;-77
2021/06/24 22:59:50;;;;;;;4.22;3.50;;;;;;;;;;5112455;28;20059;-77
2021/06/24 23:02:17;;;;;;;7.82;3.83;;;;;;;;;;5112842;28;20046;-77
2021/06/24 23:04:43;;;;;;;6.15;3.70;;;;;;;;;;5112857;28;20483;-77
2021/06/24 23:07:09;;;;;;;6.13;4.72;;;;;;;;;;5102228;28;20044;-77
2021/06/24 23:09:35;;;;;;;5.30;4.05;;;;;;;;;;5091975;28;20111;-78
2021/06/24 23:12:01;;;;;;;8.20;4.00;;;;;;;;;;5093679;28;20469;-77
2021/06/24 23:14:27;;;;;;;8.52;5.15;;;;;;;;;;5093775;28;20017;-76
2021/06/24 23:16:53;;;;;;;6.28;4.18;;;;;;;;;;5093351;28;20020;-77
2021/06/24 23:19:21;;;;;;;11.00;5.50;;;;;;;;;;5102222;28;20073;-76
2021/06/24 23:21:47;;;;;;;6.57;4.40;;;;;;;;;;5113805;28;20024;-77
2021/06/24 23:24:13;;;;;;;6.65;4.15;;;;;;;;;;5114008;28;20035;-77
2021/06/24 23:26:39;;;;;;;6.00;4.32;;;;;;;;;;5111079;28;20034;-77
2021/06/24 23:29:06;;;;;;;5.72;4.50;;;;;;;;;;5113561;28;20059;-77
2021/06/24 23:31:33;;;;;;;6.15;4.50;;;;;;;;;;5104307;28;20043;-76
2021/06/24 23:33:59;;;;;;;6.00;4.82;;;;;;;;;;5093509;28;20028;-76
2021/06/24 23:36:25;;;;;;;8.07;4.75;;;;;;;;;;5098670;22;20116;-78
2021/06/24 23:38:51;;;;;;;6.35;4.93;;;;;;;;;;5090168;28;20400;-78
2021/06/24 23:41:17;;;;;;;10.75;5.35;;;;;;;;;;5091296;28;20583;-78
2021/06/24 23:43:43;;;;;;;6.88;4.85;;;;;;;;;;5092709;28;20068;-76
2021/06/24 23:46:09;;;;;;;11.73;5.28;;;;;;;;;;5082411;28;20119;-78
2021/06/24 23:48:35;;;;;;;8.02;5.43;;;;;;;;;;5072612;28;20104;-79
2021/06/24 23:51:01;;;;;;;6.82;4.13;;;;;;;;;;5072276;28;20552;-78
2021/06/24 23:53:27;;;;;;;4.90;4.35;;;;;;;;;;5071070;28;20016;-79
2021/06/24 23:55:53;;;;;;;5.80;4.07;;;;;;;;;;5072328;28;20451;-78
2021/06/24 23:58:19;;;;;;;4.65;3.80;;;;;;;;;;5082905;28;20028;-78
